Jesus Carrillo

Recruteur en chef - Sporting Cristal
9 Juil 2028
Dimanche
Processus

Personnalité

Adaptabilité (4) Ambition (6) Controverse (16) Loyauté (7) Pression (20) Professionnalisme (5) Sportivité (1) Tempérament (5)

Profil

Style d'entraînement Démocratique
Diplôme Continental Pro
Détermination 10
Gestion des joueurs 6
Motivation 11
Discipline 13
Satisfaction professionnelle
45%
Fatigue
0%
Rôle Recruteur en chef
Salaire 29.6K p/s
Contrat 14.03.2029

Performance

Comportement Bon
Efficacité de l'entraînement
23%
Développement des joueurs
65%
Prévention des blessures
20%
Mise en place tactique
60%

Événements récents

A évalué un joueur maintenant
A participé à une réunion de recrutement maintenant
A participé à une réunion de recrutement maintenant
A recommandé une cible de transfert maintenant
A recommandé une cible de transfert maintenant
A recommandé une cible de transfert maintenant
A recommandé une cible de transfert maintenant
A évalué un joueur maintenant

Suivi en cours

322
Joueur Club Statut Capacité Confiance Observé Dernière observation Dernier vote
Liam Cullen Swansea City Actif 120 / 120 40% 3 08.07.2028 -
Johnny Kenny Preston Actif 134 / 124 40% 3 08.07.2028 -
Alassana Jatta Notts County Actif 111 / 111 40% 1 08.07.2028 -
Olivier Leroux Mouscron Actif 111 / 108 40% 7 06.07.2028 -
Cheveyo Tsawa Club Brugge Actif 119 / 133 40% 2 06.07.2028 -
Artem Nosachev Spartak Moscow Actif 92 / 85 40% 1 06.07.2028 -
Jake Evans Crewe Alexandra Actif 111 / 117 40% 2 05.07.2028 -
Kyle Wootton Stockport County Actif 136 / 118 40% 3 05.07.2028 -
Luciano Cosentino Wanderers Actif 126 / 122 40% 2 05.07.2028 -
Riquelme Thompson-Jones Accrington Stanley Actif 101 / 116 40% 2 03.07.2028 -
Aaron Collins Milton Keynes Dons Actif 119 / 122 40% 9 03.07.2028 -
Jorge Cabezas Hurtado Watford Actif 129 / 115 40% 4 03.07.2028 -
Nicolò Moranduzzo Renate Actif 88 / 99 40% 1 03.07.2028 -
Tobías Ramírez River Plate Actif 131 / 131 40% 1 03.07.2028 -
Josh Nichols Oldham Athletic Actif 129 / 118 40% 7 02.07.2028 -
Mirza Ćatović VfB Stuttgart Actif 127 / 125 40% 1 02.07.2028 -
Sam Nombe Milton Keynes Dons Actif 113 / 109 40% 5 01.07.2028 -
Jérémy Le Douaron Palermo Actif 132 / 135 40% 5 01.07.2028 -
Ryan Kavuma-McQueen Accrington Stanley Actif 114 / 133 40% 6 30.06.2028 -
David Okereke Cremonese Actif 120 / 131 40% 1 30.06.2028 -
Gideon Manaseh Ikorodu City Actif 83 / 95 40% 1 29.06.2028 -
Lamine Bèye Portimonense Actif 107 / 117 40% 1 29.06.2028 -
Simone Mazzocchi Cosenza Actif 133 / 123 40% 5 28.06.2028 -
Admir Bristrić Cambridge United Actif 118 / 120 40% 1 28.06.2028 -
John Yeboah Venezia Actif 138 / 120 40% 3 27.06.2028 -
Nicola Rauti Vicenza Actif 116 / 111 40% 1 27.06.2028 -
Job Ochieng Real Sociedad Actif 105 / 114 40% 4 26.06.2028 -
Sam Smith Wrexham Actif 120 / 125 40% 3 26.06.2028 -
Tiago Gordillo San Miguel Actif 90 / 96 40% 2 25.06.2028 -
Luis Maturana Independiente Medellin Perdu 91 / 104 40% 1 25.06.2028 -
John McAtee Leyton Orient Actif 121 / 122 40% 1 23.06.2028 -
Carlos Gugenheim Grimsby Town Actif 110 / 113 40% 1 23.06.2028 -
Freddie Draper Accrington Stanley Actif 127 / 116 40% 2 22.06.2028 -
Ante Crnac Bristol Rovers Actif 124 / 128 40% 2 22.06.2028 -
Arthur Sales Maritzburg United Actif 113 / 120 40% 7 18.06.2028 -
Fabrizio Cavegn Swindon Town Actif 123 / 116 40% 2 18.06.2028 -
Thijs Kraaijeveld USM Alger Actif 111 / 131 40% 2 17.06.2028 -
Sam Dalby Bolton Wanderers Actif 119 / 114 40% 4 17.06.2028 -
Kleis Bozhanaj Modena Actif 132 / 128 40% 2 17.06.2028 -
Luca Moro Padova Actif 117 / 117 40% 2 17.06.2028 -
Federico Matarán Giana Erminio Actif 93 / 106 40% 1 17.06.2028 -
Dmitry Pestryakov Krasnodar Actif 115 / 131 40% 3 16.06.2028 -
Miguel Figueiredo Benfica Actif 116 / 136 40% 5 16.06.2028 -
Simone Suppa Virtus Verona Actif 96 / 93 40% 1 16.06.2028 -
Evidence Makgopa Orlando Pirates Actif 113 / 124 40% 3 15.06.2028 -
Timur Suleimanov Nizhniy Novgorod Actif 132 / 118 40% 1 15.06.2028 -
Andrey Ivlev Nizhniy Novgorod Actif 102 / 123 40% 3 14.06.2028 -
Tyler Fletcher Rotherham United Actif 123 / 122 40% 4 14.06.2028 -
Dale Taylor Blackpool Actif 110 / 113 40% 3 13.06.2028 -
Marcus Browne AFC Wimbledon Actif 117 / 106 40% 1 13.06.2028 -
Matías Abaldo Defensor Sporting Actif 135 / 131 40% 1 11.06.2028 -
Stephen Humphrys Bradford City Actif 106 / 105 40% 4 30.05.2028 -
Josh Stokes Bristol City Actif 121 / 116 40% 5 30.05.2028 -
Vyacheslav Grulev Nizhniy Novgorod Actif 117 / 120 40% 3 30.05.2028 -
Ole Romeny Oxford United Actif 109 / 120 40% 2 29.05.2028 -
Rayan Kolli Queens Park Rangers Actif 114 / 112 40% 1 29.05.2028 -
Armstrong Oko-Flex Levski Actif 135 / 132 40% 7 28.05.2028 -
Manuel De Luca Cremonese Actif 138 / 132 40% 2 28.05.2028 -
Unai Ropero Alavés Actif 127 / 123 40% 1 28.05.2028 -
Giuseppe Panico Foggia Actif 126 / 116 40% 4 26.05.2028 -
Charlie Kelman Barnsley Actif 124 / 126 40% 2 26.05.2028 -
Gennaro Tutino Sampdoria Actif 119 / 129 40% 2 23.05.2028 -
Camillo Tavernelli Arezzo Actif 122 / 117 40% 3 19.05.2028 -
Facundo Lescano Salernitana Actif 118 / 114 40% 1 15.05.2028 -
Carlos Fernández Oviedo Actif 141 / 121 40% 3 13.05.2028 -
Alejandro Cantero Jomo Cosmos Actif 128 / 117 40% 1 10.05.2028 -
Igor Tyjon Barrow AFC Actif 105 / 115 40% 1 09.05.2028 -
Dane Scarlett Leyton Orient Actif 126 / 123 40% 1 08.05.2028 -
Miro Arsenal Tula Actif 109 / 119 40% 5 07.05.2028 -
Mees Rijks Bristol Rovers Actif 109 / 118 40% 2 06.05.2028 -
Gabriele Gori Ascoli Actif 107 / 109 40% 4 06.05.2028 -
Siyabonga Mabena Bidvest Wits Actif 126 / 118 40% 10 04.05.2028 -
Gaël Lafont Dolomiti Bellunesi Actif 114 / 111 40% 1 04.05.2028 -
Nana Nuhu WAFA Actif 102 / 95 40% 1 04.05.2028 -
Kaye Furo Reading Actif 119 / 121 40% 1 02.05.2028 -
Vincenzo Damiano Atalanta Actif 108 / 121 40% 1 02.05.2028 -
Amin Nabizada Exeter City Actif 118 / 119 40% 1 02.05.2028 -
Ibrahim Fullah Charlton Athletic Actif 115 / 127 40% 1 02.05.2028 -
Emanuele Schimmenti Potenza Actif 107 / 118 40% 3 29.04.2028 -
Elijah Adebayo Luton Town Actif 123 / 126 40% 3 27.04.2028 -
Wesley Pomba Rukh Actif 112 / 123 40% 1 26.04.2028 -
Walid Cheddira Avellino Actif 130 / 134 40% 2 25.04.2028 -
Felipe Varela Trujillanos Actif 87 / 96 40% 1 24.04.2028 -
Francisco Arias Gimnasia y Esgrima Actif 95 / 102 40% 1 22.04.2028 -
Amine Boukamir Charleroi Actif 108 / 115 40% 4 21.04.2028 -
Musa Danjuma Umraniyespor Actif 84 / 111 40% 1 21.04.2028 -
Jan Bürger Northampton Town Actif 115 / 131 40% 12 20.04.2028 -
Thulani Manyama SuperSport United Actif 108 / 114 40% 3 20.04.2028 -
Samuel Kalu Botev Plovdiv Actif 117 / 112 40% 1 18.04.2028 -
Bernardo Lima Porto Actif 104 / 110 40% 7 16.04.2028 -
Callum Lang Preston Actif 117 / 112 40% 1 16.04.2028 -
Matthias Phaëton CSKA Sofia Actif 119 / 110 40% 1 13.04.2028 -
Erick Dolly Black Aces Actif 113 / 121 40% 3 10.04.2028 -
Brayan Gil Baltika Actif 123 / 133 40% 6 10.04.2028 -
Tashreeq Matthews Bloemfontein Celtic Actif 125 / 113 40% 5 07.04.2028 -
Randy Nteka Krasnodar Actif 125 / 136 40% 1 06.04.2028 -
Christian Saydee Wigan Athletic Actif 109 / 110 40% 2 05.04.2028 -
Vegard Erlien Tromso Actif 116 / 114 40% 1 27.03.2028 -
Marco Tumminello Benevento Actif 126 / 123 40% 1 24.03.2028 -
Yuri Tanque Criciuma Actif 119 / 116 40% 1 23.03.2028 -
Kaique Kenji Fortaleza Actif 122 / 128 40% 1 23.03.2028 -
Joel Asoro Apollon Actif 129 / 126 40% 1 23.03.2028 -
Pedro Marques Apollon Actif 113 / 128 40% 2 20.03.2028 -
Simone Rabbi Ravenna Actif 108 / 108 40% 1 20.03.2028 -
Mikhail Ignatov Sochi Actif 109 / 122 40% 2 19.03.2028 -
Kwadwo Duah Ludogorets Actif 142 / 121 40% 1 19.03.2028 -
François Kamano Sochi Actif 112 / 115 40% 1 17.03.2028 -
Etiosa Ighodaro Kaizer Chiefs Actif 116 / 116 40% 4 14.03.2028 -
Peter Christiansen Haugesund Actif 126 / 132 40% 1 09.03.2028 -
Thiago Silvero Vélez Actif 132 / 137 40% 1 21.02.2028 -
Jamie Wähling Hibernians Actif 79 / 82 40% 1 20.02.2028 -
Olivier Mambwa Young Boys Actif 100 / 121 40% 1 17.02.2028 -
Teboho Mokoena Black Aces Actif 86 / 81 40% 2 15.02.2028 -
Kirill Kistenev Botev Vratsa Actif 81 / 93 40% 1 15.02.2028 -
Victor Hernandez Santa Fe Actif 121 / 126 40% 9 14.02.2028 -
Kiani Inge Groningen Actif 121 / 113 40% 2 13.02.2028 -
Colin Guske Orlando City Actif 100 / 91 40% 1 13.02.2028 -
Jorthy Mokio ADO Den Haag Actif 138 / 130 40% 1 12.02.2028 -
Martim Cunha Porto Actif 112 / 118 40% 3 11.02.2028 -
Edvard Pettersen Sandefjord Actif 110 / 127 40% 2 11.02.2028 -
Esquerdinha Notts County Actif 119 / 136 40% 1 09.02.2028 -
Santiago Colidio Liepaja Actif 97 / 96 40% 1 09.02.2028 -
Jonás Luna Wanderers Actif 115 / 130 40% 1 08.02.2028 -
Brandon Vázquez Austin FC Actif 114 / 123 40% 1 08.02.2028 -
Favio Cabral Mitre Actif 120 / 114 40% 1 03.01.2028 -
Tomás Fernández Aldosivi Actif 113 / 109 40% 1 03.01.2028 -
Leandro Suhr Boston River Actif 118 / 122 40% 1 03.01.2028 -
Lucas Nicol Mjondalen Actif 70 / 82 40% 1 27.12.2027 -
David Damboama El-Kanemi Warriors Actif 82 / 81 40% 1 27.12.2027 -
Adalberto Peñaranda Deportivo Tachira Actif 120 / 107 40% 1 20.12.2027 -
Jonás Acevedo Instituto Actif 119 / 121 40% 1 20.12.2027 -
Nazareno Funez Defensa y Justicia Actif 122 / 116 40% 1 20.12.2027 -
Facundo Balatti Penarol Actif 107 / 105 40% 1 16.12.2027 -
Ivan Borges Defensores Actif 86 / 93 40% 1 13.12.2027 -
Nazareno Roselli Defensa y Justicia Actif 115 / 120 40% 2 01.12.2027 -
Alan Cantero Juan Aurich Actif 117 / 121 69% 1 01.12.2027 Approuver
Nahuel Leivas Montevideo City Torque Actif 102 / 110 40% 1 01.12.2027 -
Luka Andrade Montevideo City Torque Actif 102 / 107 40% 4 29.11.2027 -
Jakob Gunnar Sigurðsson KR Actif 89 / 93 40% 3 29.11.2027 -
Anthony da Costa Artigas Actif 85 / 88 40% 9 27.11.2027 -
Fletcher Boyd Accrington Stanley Actif 102 / 104 40% 2 27.11.2027 -
Amaury Morales Leon Actif 110 / 122 40% 3 26.11.2027 -
Lamin Sillah Exeter City Actif 90 / 102 40% 2 26.11.2027 -
Pavel Núñez Zadar Actif 96 / 77 40% 2 26.11.2027 -
Julian Hall Real Salt Lake Actif 101 / 126 40% 4 25.11.2027 -
Valentino Acuña Newell's Old Boys Actif 119 / 121 40% 1 25.11.2027 -
Jeremías Merlo Gimnasia La Plata Actif 124 / 126 40% 1 25.11.2027 -
Juan Esteban García Deportes Tolima Actif 86 / 101 40% 3 23.11.2027 -
Rafael Moreno Atletico Venezuela Actif 109 / 120 40% 6 22.11.2027 -
Julián Bragado Morón Actif 81 / 84 40% 8 22.11.2027 -
Brandon Álvarez Penarol Actif 93 / 99 40% 1 21.11.2027 -
Artur Kozyrev Volna Actif 75 / 78 40% 1 21.11.2027 -
Mateo Pérez Curci Independiente Actif 122 / 125 40% 1 20.11.2027 -
Nicolás Ferreira Artigas Actif 80 / 95 40% 1 20.11.2027 -
Hassan Beja AFC Leopards Actif 97 / 103 40% 8 19.11.2027 -
Joel Ezra Enyimba Actif 87 / 112 40% 1 19.11.2027 -
Ramiro Jara Racing Actif 89 / 86 40% 9 17.11.2027 -
Santiago Uriza Vélez Actif 93 / 97 40% 2 16.11.2027 -
Lander Astiazarán Real Sociedad Actif 101 / 120 40% 1 16.11.2027 -
Bautista Carboni Defensores Unidos Actif 104 / 105 40% 1 16.11.2027 -
Matvii Ponomarenko Dynamo Kyiv Actif 127 / 137 40% 1 11.11.2027 Plus d'infos
Facundo Rodríguez Talleres Actif 88 / 98 40% 8 10.11.2027 -
Andy Rojas New York Red Bulls Actif 106 / 109 40% 3 09.11.2027 -
Matías Cantero All Boys Actif 96 / 97 40% 1 09.11.2027 -
Luighi Palmeiras Actif 111 / 120 40% 2 07.11.2027 -
Maximo Ingravidi Colón Actif 102 / 104 40% 1 06.11.2027 -
Edison Gruezo Guadalajara Actif 112 / 102 40% 5 05.11.2027 -
Miloš Luković RC Strasbourg Actif 129 / 120 40% 3 02.11.2027 -
Bruno Fernández Independiente Actif 95 / 88 40% 1 01.11.2027 -
Justin Ellis Orlando City Actif 87 / 110 40% 1 31.10.2027 -
Luca Meirelles Kudrivka Actif 114 / 119 40% 4 27.10.2027 -
Matija Popović Fakel Actif 113 / 120 40% 1 26.10.2027 -
Valentino Huertas Morón Actif 103 / 107 40% 1 26.10.2027 -
Benjamín Rodríguez Albion Actif 76 / 95 40% 1 26.10.2027 -
Eli Junior Kroupi Bournemouth Actif 149 / 141 40% 2 21.10.2027 -
Ramiro Contreras Alvarado Actif 72 / 90 40% 1 21.10.2027 -
Juan Diego Perdomo Depor Actif 83 / 94 40% 1 21.10.2027 -
Matías Canedo Rampla Juniors Actif 83 / 88 40% 1 21.10.2027 -
Anton Matković NK Osijek Actif 124 / 114 40% 1 17.10.2027 -
Abubakar Garba Nasarawa United Actif 84 / 92 40% 5 16.10.2027 -
Nicholas Simmonds FC Dallas Actif 91 / 104 40% 1 11.10.2027 -
Nahuel Reyes Mitre Actif 85 / 88 40% 1 07.10.2027 -
Egor Yuschenko Lida Actif 70 / 80 40% 1 06.10.2027 -
Joaquín Varela Albion Actif 75 / 85 40% 1 06.10.2027 -
Luca Feler Vélez Actif 96 / 105 40% 1 05.10.2027 -
Diego Vargas Universidad de Concepcion Actif 88 / 99 40% 1 05.10.2027 -
Mohamed Bolivar Barranquilla Actif 92 / 93 40% 1 05.10.2027 -
Alejandro Garay Independiente Actif 92 / 96 40% 1 04.10.2027 -
Jhon Aponza Boca Juniors Actif 113 / 110 40% 2 02.10.2027 -
Chimobi Igwilo Rangers International Actif 94 / 96 40% 5 01.10.2027 -
Gabriel Mujica Envigado Actif 76 / 85 40% 2 01.10.2027 -
Kevin Angulo America de Cali Actif 102 / 106 40% 2 30.09.2027 -
Juan Rodríguez Cerro Largo Actif 99 / 105 40% 2 29.09.2027 -
Idris Ajiya Nasarawa United Actif 95 / 95 40% 2 29.09.2027 -
Dylan Cabral Arsenal Actif 97 / 110 40% 4 28.09.2027 -
Dániel Pintér Inter Miami CF Actif 81 / 90 40% 1 28.09.2027 -
Maren Kefas Plateau United Actif 94 / 93 40% 5 24.09.2027 -
Diego Robles Union Espanola Actif 75 / 89 40% 1 24.09.2027 -
Alan Torterolo Defensor Sporting Actif 92 / 108 40% 8 21.09.2027 -
Axel Pedrozo Almagro Actif 83 / 90 40% 1 21.09.2027 -
Elion Krosa Odd Actif 84 / 84 40% 1 20.09.2027 -
Ruben Ramos LA Galaxy Actif 93 / 106 40% 2 17.09.2027 -
Joseph Abah Remo Stars Actif 75 / 100 40% 2 15.09.2027 -
Stanley Amon Bayelsa United Actif 83 / 97 40% 7 10.09.2027 -
Chineme Chinonso Ikorodu City Actif 87 / 99 40% 3 07.09.2027 -
Tiago Pucciarelli IF Elfsborg Actif 93 / 108 40% 4 07.09.2027 -
Mbekezeli Mbokazi Chicago Fire Actif 133 / 140 40% 1 06.09.2027 -
Alejandro Leiva Patronato Actif 100 / 102 40% 1 06.09.2027 -
Omar Bautista Gerez Central Córdoba SdE Actif 89 / 89 40% 3 03.09.2027 -
Ahmed Khaled Paralimni Actif 88 / 111 40% 1 22.08.2027 -
Serge Daura PWD Bamenda Actif 91 / 109 40% 2 21.08.2027 -
Godbless Ayeke AS Bakaridjan Actif 79 / 77 40% 1 20.08.2027 -
Ezekiel Kwame Alladoh Philadelphia Union Actif 117 / 122 40% 3 19.08.2027 -
Alen Vukaj Alcione Milano Actif 97 / 110 40% 1 16.08.2027 -
Michael Noumon Heart of Lions Actif 74 / 88 40% 1 16.08.2027 -
Miloš Jovičić Zabbar St. Patrick Actif 100 / 110 40% 3 14.08.2027 -
Darlvin Yeboah Bechem United Actif 85 / 78 40% 3 13.08.2027 -
Dani Ángel Sampdoria Actif 94 / 103 40% 1 09.08.2027 -
Fletcher Holman Swindon Town Actif 91 / 96 40% 1 06.08.2027 -
Ryan Oné Sheffield United Actif 121 / 110 40% 1 05.07.2027 -
Nazif Inoussa Benfica Actif 83 / 79 40% 1 28.06.2027 -
Issa Yusuf Shooting Stars Actif 88 / 105 40% 1 24.06.2027 -
Tommaso Cecotti Carpi Actif 84 / 109 40% 9 23.06.2027 -
Andrea Bertoncini Triestina Actif 95 / 87 40% 4 23.06.2027 -
Leandro Martins Benfica Actif 93 / 106 40% 3 21.06.2027 -
Godwin Oham Warri Wolves Actif 95 / 94 40% 2 21.06.2027 -
Lisandro Alzugaray Universitario Actif 115 / 117 69% 1 21.06.2027 Approuver
Olalekan Adeleke Remo Stars Actif 79 / 92 40% 1 20.06.2027 -
Riley Owen Stevenage Actif 95 / 121 40% 4 13.06.2027 -
Kazunari Kita Real Sociedad Actif 98 / 102 40% 7 13.06.2027 -
Hosea Michael Remo Stars Actif 90 / 103 40% 1 13.06.2027 -
Gonçalo Oliveira Benfica Actif 101 / 120 40% 10 01.06.2027 -
Ramadan Ashour Sporting Cristal Actif 120 / 120 67% 1 01.06.2027 Approuver
Rivaldo Mkhize Black Aces Actif 72 / 76 40% 8 31.05.2027 -
Jenson Jones Walsall Actif 98 / 108 40% 5 28.05.2027 -
Tiago Freitas Benfica Actif 98 / 125 40% 4 17.05.2027 -
Zane Albarus Shrewsbury Town Actif 106 / 99 40% 9 14.05.2027 -
Edwin Asamoah Berekum Chelsea Actif 82 / 90 40% 4 10.05.2027 -
Moncef Zekri Sporting CP Actif 95 / 118 40% 1 04.05.2027 -
Samuele di Benedetto Twente Actif 114 / 125 40% 2 01.05.2027 -
Lucas Agazzi Villarreal Actif 120 / 127 40% 6 26.04.2027 -
David Ozoh Derby County Actif 114 / 115 40% 4 25.04.2027 -
Charlie Gray Fleetwood Town Actif 87 / 102 40% 4 24.04.2027 -
Sebastián Ramírez Aguilas Doradas Actif 105 / 112 40% 1 18.04.2027 -
Halam Loboa Sevilla Actif 130 / 132 40% 3 12.04.2027 -
Alessandro Zoboletti Sambenedettese Actif 102 / 95 40% 1 09.04.2027 -
Chari Giwa US Bougouni Actif 77 / 85 40% 3 08.04.2027 -
Kamaldeen Atiemo Wa All Stars Actif 85 / 104 40% 1 08.04.2027 -
Konta Ismaily Actif 87 / 96 40% 2 06.04.2027 -
Mpho Khethang FC Diarra Actif 83 / 83 40% 1 02.04.2027 -
Bence Dárdai VfL Wolfsburg Actif 118 / 133 40% 1 01.04.2027 -
James Dornelly Peterborough United Actif 109 / 111 40% 4 31.03.2027 -
Sascha Britschgi AC Milan Actif 124 / 123 40% 3 26.03.2027 -
Juan Pablo De la Reta Rayo Vallecano Actif 112 / 107 40% 2 24.03.2027 -
Maldini Kacurri Grimsby Town Actif 85 / 103 40% 1 17.03.2027 -
Wessel Kuhn PSV Actif 97 / 120 40% 1 17.03.2027 -
Santiago Fernández Talleres Actif 122 / 120 40% 1 09.03.2027 -
Cemran Dansin Orlando Pirates Actif 121 / 117 40% 1 04.03.2027 -
Makar Vysochenko Spartak Moscow Actif 72 / 92 40% 1 27.02.2027 -
Agustín Medina Lanús Actif 107 / 119 40% 2 26.02.2027 -
Samuele Diodato Lumezzane Actif 92 / 85 40% 1 26.02.2027 -
Afriyie Sulemana WAFA Actif 96 / 80 40% 1 23.02.2027 -
Marcelo Camargo Blackpool Actif 111 / 114 40% 1 13.02.2027 -
Lucas Mbamba Westerlo Actif 84 / 106 40% 1 10.02.2027 -
Per Kloosterboer Utrecht Actif 100 / 115 40% 1 09.02.2027 -
Everardo López Betis Actif 127 / 133 40% 1 08.02.2027 -
Matteo Pérez Vinlöf Dinamo Zagreb Actif 126 / 133 40% 1 02.02.2027 -
Alejo Gelsomino Gimnasia La Plata Actif 99 / 108 40% 1 01.02.2027 -
Diogo Monteiro Tondela Actif 107 / 95 40% 1 07.01.2027 -
Savely Nikiforov Zenit Actif 68 / 85 40% 1 07.01.2027 -
Galo Galarza Estudiantes Actif 92 / 113 40% 1 06.01.2027 -
Alan Forneris Racing Club Actif 120 / 118 40% 1 02.01.2027 -
Juan Fernándes Pinto Almagro Actif 106 / 108 40% 1 31.12.2026 -
Darwin Soteldo Real Sociedad Actif 94 / 116 40% 1 29.12.2026 -
Louis Leroux FC Nantes Actif 111 / 126 40% 1 28.12.2026 -
Caleb Yirenkyi Coventry City Actif 130 / 128 40% 1 28.12.2026 -
Celías Ingenthron Platense Actif 99 / 111 40% 1 21.12.2026 -
Angelo Campos Juan Aurich Actif 104 / 110 65% 1 14.12.2026 Approuver
Illaijh de Ruijter ADO Den Haag Actif 120 / 121 40% 1 03.12.2026 -
Tyrhys Dolan Espanyol Actif 124 / 128 40% 1 29.11.2026 -
Sergey Pinyaev Lokomotiv Moscow Actif 131 / 133 40% 2 27.11.2026 -
Isaac Matondo Koper Actif 99 / 101 40% 1 27.11.2026 -
Alexis Steimbach Gimnasia La Plata Actif 113 / 123 40% 1 27.11.2026 -
Ekain Orobengoa Real Sociedad Actif 88 / 113 40% 2 25.11.2026 -
Jáder Valencia Deportes Tolima Actif 106 / 118 40% 2 24.11.2026 -
Alexander Aravena Portland Timbers Actif 123 / 139 40% 1 23.11.2026 -
Jacques Siwe Rubin Actif 125 / 116 40% 3 22.11.2026 -
Tio Cipot NK Maribor Actif 116 / 122 40% 2 22.11.2026 -
Stephen Amankona Aduana Stars Actif 83 / 80 40% 1 22.11.2026 -
Denzel Jubitana Neftchi Actif 104 / 124 40% 1 19.11.2026 -
Martín Ojeda Orlando City Actif 146 / 121 40% 1 16.11.2026 -
Kévin Denkey FC Cincinnati Actif 117 / 139 40% 1 12.11.2026 -
Assad Al Hamlawi Universitatea Craiova Actif 111 / 131 40% 1 10.11.2026 -
Bénie Traoré New York City Actif 119 / 117 40% 1 10.11.2026 -
Petar Stanić Ludogorets Actif 145 / 124 40% 2 09.11.2026 -
Lucas Cepeda Elche Actif 137 / 125 40% 1 09.11.2026 -
Duncan McGuire Houston Dynamo Actif 119 / 132 40% 1 08.11.2026 -
Ieltsin Camões Tromso Actif 118 / 123 40% 1 28.10.2026 -
Ammar Ramadan DAC Dunajska Streda Actif 137 / 136 40% 2 27.10.2026 -
Luis Caicedo Spartak 1918 Actif 82 / 93 40% 1 23.10.2026 -
Jens Petter Hauge Bodo/Glimt Actif 127 / 138 40% 1 20.10.2026 -
Bradley Zwane SuperSport United Actif 115 / 129 40% 1 20.10.2026 -
Daniel Karlsbakk Sarpsborg 08 Actif 133 / 122 40% 1 17.10.2026 Plus d'infos
Matías Pellegrini Vélez Actif 117 / 118 40% 1 16.10.2026 -
Daniel Bassi Lillestrom Actif 121 / 123 40% 1 13.10.2026 -
Gaspar Duarte Rosario Central Actif 109 / 110 40% 1 11.10.2026 -
Erik Botheim Viking Actif 137 / 133 40% 1 07.10.2026 -
Simphiwe Selepe Orlando Pirates Actif 106 / 122 40% 1 06.10.2026 -
Mateo Caballero Defensor Sporting Actif 98 / 115 40% 1 09.09.2026 -
Lucas Souto Defensa y Justicia Actif 121 / 116 40% 2 07.08.2026 -
Tomás Galván River Plate Actif 119 / 131 40% 1 07.08.2026 -
Franco Sivetti Gimnasia y Tiro Actif 102 / 111 40% 1 06.08.2026 -
Francisco Manenti Metropolitanos Actif 106 / 113 40% 1 06.08.2026 -
César Magallan Estudiantes de Merida Actif 101 / 103 40% 1 06.08.2026 -
Bongani Zungu Ajax Cape Town Actif 131 / 126 40% 1 05.08.2026 -
Carlo Lattanzio San Martín SJ Actif 111 / 99 40% 1 03.08.2026 -
Oscar Garrido Mitre Actif 117 / 120 40% 1 02.08.2026 -
Brahim Díaz Real Madrid Actif 160 / 134 40% 1 02.08.2026 -
Enzo Giménez Queretaro Actif 137 / 119 40% 1 02.08.2026 -
Roberto López Leganés Actif 130 / 118 40% 1 01.08.2026 -
Chidera Ejuke Sevilla Actif 134 / 142 40% 1 01.08.2026 -
Francisco González Metilli Belgrano Actif 134 / 125 40% 1 01.08.2026 -